createdAt,value
2017-11-03T00:00:33.688Z,16.27
2017-11-03T00:05:35.510Z,16.47
2017-11-03T00:10:37.317Z,16.03
2017-11-03T00:15:38.382Z,16.00
2017-11-03T00:20:39.433Z,18.30
2017-11-03T00:25:40.518Z,17.63
2017-11-03T00:30:41.593Z,16.70
2017-11-03T00:35:42.653Z,16.00
2017-11-03T00:40:43.717Z,15.37
2017-11-03T00:45:44.784Z,16.27
2017-11-03T00:50:45.850Z,16.20
2017-11-03T00:55:46.908Z,15.17
2017-11-03T01:00:47.971Z,17.63
2017-11-03T01:05:49.762Z,18.40
2017-11-03T01:10:50.805Z,17.23
2017-11-03T01:15:52.582Z,17.43
2017-11-03T01:20:54.379Z,16.50
2017-11-03T01:25:55.439Z,16.80
2017-11-03T01:30:56.485Z,16.57
2017-11-03T01:35:58.283Z,16.30
2017-11-03T01:40:59.358Z,16.50
2017-11-03T01:46:00.449Z,17.00
2017-11-03T01:51:01.510Z,17.17
2017-11-03T01:56:02.585Z,16.40
2017-11-03T02:01:04.375Z,16.93
2017-11-03T02:06:05.443Z,17.47
2017-11-03T02:11:06.518Z,17.67
2017-11-03T02:16:07.609Z,16.87
2017-11-03T02:21:08.682Z,17.60
2017-11-03T02:26:09.764Z,16.87
2017-11-03T02:31:10.814Z,18.83
2017-11-03T02:36:12.621Z,17.00
2017-11-03T02:41:13.701Z,18.43
2017-11-03T02:46:14.762Z,17.57
2017-11-03T02:51:15.833Z,17.20
2017-11-03T02:56:16.893Z,17.27
2017-11-03T03:01:17.945Z,18.53
2017-11-03T03:06:18.996Z,17.90
2017-11-03T03:11:20.049Z,17.20
2017-11-03T03:16:21.104Z,17.73
2017-11-03T03:21:22.188Z,16.90
2017-11-03T03:26:23.284Z,17.90
2017-11-03T03:31:24.341Z,18.07
2017-11-03T03:36:25.437Z,18.10
2017-11-03T03:41:26.496Z,18.80
2017-11-03T03:46:27.562Z,17.40
2017-11-03T03:51:28.662Z,16.87
2017-11-03T03:56:29.717Z,19.00
2017-11-03T04:01:31.565Z,18.03
2017-11-03T04:06:32.679Z,19.57
2017-11-03T04:11:33.734Z,18.77
2017-11-03T04:16:34.769Z,17.50
2017-11-03T04:21:40.204Z,17.00
2017-11-03T04:26:41.298Z,17.67
2017-11-03T04:31:42.381Z,18.30
2017-11-03T04:36:43.445Z,16.97
2017-11-03T04:41:44.513Z,18.83
2017-11-03T04:46:45.586Z,17.80
2017-11-03T04:51:47.402Z,17.10
2017-11-03T04:56:49.197Z,15.67
2017-11-03T05:01:50.261Z,17.50
2017-11-03T05:06:51.337Z,18.30
2017-11-03T05:11:52.401Z,18.67
2017-11-03T05:16:53.456Z,18.93
2017-11-03T05:21:54.529Z,17.40
2017-11-03T05:26:56.098Z,17.90
2017-11-03T05:31:57.930Z,17.37
2017-11-03T05:36:59.012Z,16.67
2017-11-03T05:42:00.089Z,17.63
2017-11-03T05:47:01.152Z,15.87
2017-11-03T05:52:02.213Z,16.57
2017-11-03T05:57:03.277Z,18.70
2017-11-03T06:02:04.342Z,18.43
2017-11-03T06:07:07.393Z,18.27
2017-11-03T06:12:08.474Z,18.20
2017-11-03T06:17:09.566Z,18.40
2017-11-03T06:22:10.641Z,18.77
2017-11-03T06:27:12.449Z,18.17
2017-11-03T06:32:13.509Z,21.03
2017-11-03T06:37:14.569Z,17.83
2017-11-03T06:42:15.657Z,16.83
2017-11-03T06:47:16.704Z,18.33
2017-11-03T06:52:17.757Z,18.50
2017-11-03T06:57:18.809Z,19.03
2017-11-03T07:02:19.880Z,19.73
2017-11-03T07:07:20.947Z,18.40
2017-11-03T07:12:22.010Z,18.37
2017-11-03T07:17:23.077Z,19.10
2017-11-03T07:22:24.126Z,17.57
2017-11-03T07:27:25.184Z,18.77
2017-11-03T07:32:26.220Z,19.60
2017-11-03T07:37:27.289Z,18.70
2017-11-03T07:42:28.358Z,18.70
2017-11-03T07:47:29.426Z,19.60
2017-11-03T07:52:30.489Z,19.37
2017-11-03T07:57:32.317Z,20.60
2017-11-03T08:02:33.368Z,19.83
2017-11-03T08:07:35.140Z,20.50
2017-11-03T08:12:36.205Z,19.83
2017-11-03T08:17:37.268Z,19.40
2017-11-03T08:22:38.345Z,21.40
2017-11-03T08:27:43.028Z,20.50
2017-11-03T08:32:44.828Z,22.90
2017-11-03T08:37:45.885Z,19.60
2017-11-03T08:42:47.797Z,20.90
2017-11-03T08:47:48.840Z,20.37
2017-11-03T08:52:49.926Z,19.13
2017-11-03T08:57:51.016Z,19.47
2017-11-03T09:02:52.796Z,18.67
2017-11-03T09:07:54.589Z,20.50
2017-11-03T09:12:56.674Z,18.20
2017-11-03T09:17:57.752Z,20.20
2017-11-03T09:22:58.830Z,20.60
2017-11-03T09:27:59.901Z,19.90
2017-11-03T09:33:00.977Z,19.80
2017-11-03T09:38:02.785Z,19.97
2017-11-03T09:43:03.882Z,20.30
2017-11-03T09:48:04.960Z,19.67
2017-11-03T09:53:06.015Z,19.50
2017-11-03T09:58:07.885Z,20.40
2017-11-03T10:03:08.952Z,22.80
2017-11-03T10:08:10.014Z,20.10
2017-11-03T10:13:11.841Z,21.60
2017-11-03T10:18:12.921Z,20.97
2017-11-03T10:23:14.065Z,22.03
2017-11-03T10:28:15.149Z,20.30
2017-11-03T10:33:16.234Z,22.40
2017-11-03T10:38:18.040Z,19.27
2017-11-03T10:43:19.122Z,19.47
2017-11-03T10:48:20.204Z,19.53
2017-11-03T10:53:21.257Z,18.80
2017-11-03T10:58:22.347Z,17.90
2017-11-03T11:03:24.135Z,19.57
2017-11-03T11:08:25.177Z,17.87
2017-11-03T11:13:26.998Z,19.77
2017-11-03T11:18:28.073Z,23.97
2017-11-03T11:23:29.138Z,17.40
2017-11-03T11:28:30.204Z,16.33
2017-11-03T11:33:31.276Z,18.40
2017-11-03T11:38:33.089Z,17.97
2017-11-03T11:43:34.253Z,19.20
2017-11-03T11:48:35.345Z,17.20
2017-11-03T11:53:36.421Z,16.00
2017-11-03T11:58:37.526Z,16.73
2017-11-03T12:03:38.640Z,15.73
2017-11-03T12:08:43.074Z,16.03
2017-11-03T12:13:44.167Z,15.87
2017-11-03T12:18:45.656Z,18.07
2017-11-03T12:23:46.769Z,17.10
2017-11-03T12:28:47.849Z,16.63
2017-11-03T12:33:49.653Z,16.57
2017-11-03T12:38:50.702Z,14.67
2017-11-03T12:43:51.794Z,15.33
2017-11-03T12:48:52.862Z,16.40
2017-11-03T12:53:53.945Z,17.87
2017-11-03T12:58:55.745Z,15.57
2017-11-03T13:03:56.825Z,18.70
2017-11-03T13:08:57.892Z,18.23
2017-11-03T13:13:58.957Z,17.80
2017-11-03T13:19:00.023Z,16.90
2017-11-03T13:24:01.081Z,16.20
2017-11-03T13:29:02.197Z,18.50
2017-11-03T13:34:03.262Z,16.97
2017-11-03T13:39:04.341Z,18.77
2017-11-03T13:44:05.415Z,15.20
2017-11-03T13:49:06.472Z,16.33
2017-11-03T13:54:07.566Z,16.00
2017-11-03T13:59:09.388Z,15.03
2017-11-03T14:04:10.452Z,15.47
2017-11-03T14:09:11.523Z,15.80
2017-11-03T14:14:12.586Z,16.00
2017-11-03T14:19:16.997Z,14.23
2017-11-03T14:24:18.070Z,15.83
2017-11-03T14:29:19.151Z,15.40
2017-11-03T14:34:20.239Z,15.33
2017-11-03T14:39:22.057Z,15.23
2017-11-03T14:44:23.395Z,16.50
2017-11-03T14:49:24.453Z,14.90
2017-11-03T14:54:25.513Z,14.37
2017-11-03T14:59:27.576Z,16.07
2017-11-03T15:04:29.378Z,15.67
2017-11-03T15:09:30.452Z,15.80
2017-11-03T15:14:31.522Z,15.80
2017-11-03T15:19:32.600Z,16.70
2017-11-03T15:24:33.683Z,17.10
2017-11-03T15:29:34.777Z,16.90
2017-11-03T15:34:35.882Z,16.73
2017-11-03T15:39:36.946Z,16.37
2017-11-03T15:44:38.750Z,15.40
2017-11-03T15:49:39.821Z,17.17
2017-11-03T15:54:41.882Z,17.80
2017-11-03T15:59:42.956Z,16.73
2017-11-03T16:04:44.021Z,18.83
2017-11-03T16:09:45.093Z,22.73
2017-11-03T16:14:46.208Z,20.50
2017-11-03T16:19:47.996Z,20.90
2017-11-03T16:24:49.076Z,18.77
2017-11-03T16:29:50.150Z,17.90
2017-11-03T16:34:51.205Z,19.80
2017-11-03T16:39:52.290Z,17.30
2017-11-03T16:44:53.375Z,18.67
2017-11-03T16:49:54.445Z,18.20
2017-11-03T16:54:55.558Z,19.97
2017-11-03T16:59:56.622Z,18.10
2017-11-03T17:04:57.668Z,18.80
2017-11-03T17:09:58.733Z,18.73
2017-11-03T17:14:59.806Z,20.97
2017-11-03T17:20:13.832Z,17.93
2017-11-03T17:25:14.886Z,22.23
2017-11-03T17:30:15.966Z,21.10
2017-11-03T17:35:31.969Z,21.20
2017-11-03T17:40:33.022Z,21.50
2017-11-03T17:45:34.098Z,24.93
2017-11-03T17:50:35.170Z,23.87
2017-11-03T17:55:41.570Z,21.83
2017-11-03T18:00:43.384Z,20.40
2017-11-03T18:05:46.528Z,21.27
2017-11-03T18:10:47.610Z,23.47
2017-11-03T18:15:49.452Z,22.37
2017-11-03T18:20:58.910Z,20.60
2017-11-03T18:25:59.974Z,21.80
2017-11-03T18:31:01.028Z,22.20
2017-11-03T18:36:02.098Z,21.40
2017-11-03T18:41:03.212Z,22.70
2017-11-03T18:46:04.241Z,20.50
2017-11-03T18:51:05.345Z,22.10
2017-11-03T18:56:06.444Z,20.23
2017-11-03T19:01:08.217Z,21.73
2017-11-03T19:06:10.013Z,21.43
2017-11-03T19:11:11.064Z,22.40
2017-11-03T19:16:12.885Z,25.00
2017-11-03T19:21:13.977Z,20.83
2017-11-03T19:26:15.119Z,22.87
2017-11-03T19:31:16.212Z,22.03
2017-11-03T19:36:18.045Z,22.43
2017-11-03T19:41:19.132Z,21.33
2017-11-03T19:46:20.193Z,23.43
2017-11-03T19:51:21.982Z,20.73
2017-11-03T19:56:27.422Z,21.90
2017-11-03T20:01:29.268Z,21.00
2017-11-03T20:06:30.372Z,22.97
2017-11-03T20:11:32.216Z,21.83
2017-11-03T20:16:33.271Z,21.47
2017-11-03T20:21:34.325Z,22.67
2017-11-03T20:26:37.129Z,21.80
2017-11-03T20:31:38.253Z,24.83
2017-11-03T20:36:39.359Z,24.47
2017-11-03T20:41:40.460Z,24.97
2017-11-03T20:46:41.550Z,23.13
2017-11-03T20:51:42.614Z,24.83
2017-11-03T20:56:43.740Z,23.63
2017-11-03T21:01:44.852Z,29.47
2017-11-03T21:06:45.894Z,26.50
2017-11-03T21:11:46.930Z,25.10
2017-11-03T21:16:48.011Z,23.33
2017-11-03T21:21:49.049Z,24.10
2017-11-03T21:26:50.109Z,23.87
2017-11-03T21:31:51.157Z,24.00
2017-11-03T21:36:52.205Z,25.53
2017-11-03T21:41:53.252Z,24.43
2017-11-03T21:46:54.360Z,25.10
2017-11-03T21:51:55.417Z,24.57
2017-11-03T21:56:56.516Z,23.87
2017-11-03T22:01:58.289Z,23.60
2017-11-03T22:07:00.081Z,23.53
2017-11-03T22:12:01.117Z,23.90
2017-11-03T22:17:02.949Z,23.30
2017-11-03T22:22:04.001Z,23.90
2017-11-03T22:27:05.053Z,24.03
2017-11-03T22:32:06.121Z,24.57
2017-11-03T22:37:07.174Z,23.30
2017-11-03T22:42:09.124Z,22.10
2017-11-03T22:47:10.218Z,21.93
2017-11-03T22:52:11.258Z,22.53
2017-11-03T22:57:12.367Z,23.20
2017-11-03T23:02:13.453Z,23.30
2017-11-03T23:07:15.226Z,19.60
2017-11-03T23:12:17.015Z,20.50
2017-11-03T23:17:18.049Z,19.97
2017-11-03T23:22:19.849Z,18.77
2017-11-03T23:27:20.917Z,19.33
2017-11-03T23:32:21.989Z,17.80
2017-11-03T23:37:23.044Z,18.00
2017-11-03T23:42:24.101Z,17.50
2017-11-03T23:47:25.169Z,16.20
2017-11-03T23:52:26.229Z,16.90
2017-11-03T23:57:27.281Z,19.80
